Ashippun, Wisconsin
Current Conditions -  °F | °C
As of 4:35 AM on Friday 31 Oct 2014 (Local Time) from KRYV Reporting Station
Moderate Snow Moderate Snow  
Wind Chill: 22°   Ceiling: 600
Heat Index: 32°   Visibility: 0.75mi
Dew Point: 32°   Wind: 15mph
Humidity: 99%   Direction: 330°NNW
Pressure: 30.1"   Gusts: 24mph
Location:  43.21°N, 88.52°W
Report Text: KRYV 310935Z AUTO 33013G21KT 3/4SM SN OVC006 00/00 A3010 RMK AO2 P0001 T00001002
Loading
Personal Weather Stations






























Interactive Weather Map New forecast layout! Learn more

10-Day Weather Forecast

Advertisements
Track Severe Weather on mobile